sensor_id;sensor_type;location;lat;lon;timestamp;P1;durP1;ratioP1;P2;durP2;ratioP2
2362;SDS011;1192;51.664;7.626;2022-09-25T00:00:31;666.75;;;597.80;;
2362;SDS011;1192;51.664;7.626;2022-09-25T00:02:59;677.42;;;607.58;;
2362;SDS011;1192;51.664;7.626;2022-09-25T00:05:25;667.95;;;601.88;;
2362;SDS011;1192;51.664;7.626;2022-09-25T00:07:52;695.17;;;629.22;;
2362;SDS011;1192;51.664;7.626;2022-09-25T00:10:20;669.72;;;605.72;;
2362;SDS011;1192;51.664;7.626;2022-09-25T00:12:48;650.25;;;587.55;;
2362;SDS011;1192;51.664;7.626;2022-09-25T00:15:15;683.45;;;620.20;;
2362;SDS011;1192;51.664;7.626;2022-09-25T00:17:42;635.58;;;574.90;;
2362;SDS011;1192;51.664;7.626;2022-09-25T00:20:10;648.40;;;588.60;;
2362;SDS011;1192;51.664;7.626;2022-09-25T00:22:36;671.70;;;611.17;;
2362;SDS011;1192;51.664;7.626;2022-09-25T00:25:03;632.63;;;573.95;;
2362;SDS011;1192;51.664;7.626;2022-09-25T00:27:30;655.67;;;596.28;;
2362;SDS011;1192;51.664;7.626;2022-09-25T00:29:57;638.17;;;579.20;;
2362;SDS011;1192;51.664;7.626;2022-09-25T00:32:24;647.53;;;587.55;;
2362;SDS011;1192;51.664;7.626;2022-09-25T00:34:51;663.35;;;602.47;;
2362;SDS011;1192;51.664;7.626;2022-09-25T00:37:19;659.00;;;597.35;;
2362;SDS011;1192;51.664;7.626;2022-09-25T00:39:47;639.05;;;578.47;;
2362;SDS011;1192;51.664;7.626;2022-09-25T00:42:13;651.38;;;589.65;;
2362;SDS011;1192;51.664;7.626;2022-09-25T00:44:52;651.92;;;589.10;;
2362;SDS011;1192;51.664;7.626;2022-09-25T00:47:26;630.42;;;571.17;;
2362;SDS011;1192;51.664;7.626;2022-09-25T00:50:11;641.28;;;582.53;;
2362;SDS011;1192;51.664;7.626;2022-09-25T00:52:49;607.45;;;550.15;;
2362;SDS011;1192;51.664;7.626;2022-09-25T00:55:17;662.88;;;604.55;;
2362;SDS011;1192;51.664;7.626;2022-09-25T00:57:47;622.47;;;565.03;;
2362;SDS011;1192;51.664;7.626;2022-09-25T01:00:17;634.88;;;577.47;;
2362;SDS011;1192;51.664;7.626;2022-09-25T01:02:45;628.88;;;571.78;;
2362;SDS011;1192;51.664;7.626;2022-09-25T01:05:17;631.13;;;573.90;;
2362;SDS011;1192;51.664;7.626;2022-09-25T01:07:46;611.13;;;555.40;;
2362;SDS011;1192;51.664;7.626;2022-09-25T01:10:17;624.13;;;567.95;;
2362;SDS011;1192;51.664;7.626;2022-09-25T01:12:45;619.13;;;562.90;;
2362;SDS011;1192;51.664;7.626;2022-09-25T01:15:14;646.00;;;588.47;;
2362;SDS011;1192;51.664;7.626;2022-09-25T01:17:45;630.03;;;573.75;;
2362;SDS011;1192;51.664;7.626;2022-09-25T01:20:23;642.67;;;585.92;;
2362;SDS011;1192;51.664;7.626;2022-09-25T01:23:05;617.05;;;560.97;;
2362;SDS011;1192;51.664;7.626;2022-09-25T01:25:49;647.70;;;590.45;;
2362;SDS011;1192;51.664;7.626;2022-09-25T01:28:48;619.15;;;562.80;;
2362;SDS011;1192;51.664;7.626;2022-09-25T01:31:22;620.55;;;563.35;;
2362;SDS011;1192;51.664;7.626;2022-09-25T01:33:54;605.22;;;549.67;;
2362;SDS011;1192;51.664;7.626;2022-09-25T01:36:27;632.42;;;575.13;;
2362;SDS011;1192;51.664;7.626;2022-09-25T01:38:56;629.53;;;572.67;;
2362;SDS011;1192;51.664;7.626;2022-09-25T01:41:29;629.88;;;572.67;;
2362;SDS011;1192;51.664;7.626;2022-09-25T01:44:05;622.28;;;564.90;;
2362;SDS011;1192;51.664;7.626;2022-09-25T01:46:39;636.20;;;579.03;;
2362;SDS011;1192;51.664;7.626;2022-09-25T01:49:10;634.58;;;577.08;;
2362;SDS011;1192;51.664;7.626;2022-09-25T01:51:42;615.75;;;559.17;;
2362;SDS011;1192;51.664;7.626;2022-09-25T01:54:13;644.97;;;587.10;;
2362;SDS011;1192;51.664;7.626;2022-09-25T01:56:45;629.25;;;571.40;;
2362;SDS011;1192;51.664;7.626;2022-09-25T01:59:21;656.05;;;597.10;;
2362;SDS011;1192;51.664;7.626;2022-09-25T02:01:52;626.47;;;568.53;;
2362;SDS011;1192;51.664;7.626;2022-09-25T02:04:23;636.72;;;578.22;;
2362;SDS011;1192;51.664;7.626;2022-09-25T02:06:54;622.03;;;564.53;;
2362;SDS011;1192;51.664;7.626;2022-09-25T02:09:27;615.35;;;557.40;;
2362;SDS011;1192;51.664;7.626;2022-09-25T02:11:58;617.58;;;559.42;;
2362;SDS011;1192;51.664;7.626;2022-09-25T02:14:33;630.67;;;573.38;;
2362;SDS011;1192;51.664;7.626;2022-09-25T02:17:07;623.90;;;566.80;;
2362;SDS011;1192;51.664;7.626;2022-09-25T02:19:38;625.20;;;567.97;;
2362;SDS011;1192;51.664;7.626;2022-09-25T02:22:23;631.97;;;574.28;;
2362;SDS011;1192;51.664;7.626;2022-09-25T02:24:55;616.08;;;558.90;;
2362;SDS011;1192;51.664;7.626;2022-09-25T02:27:25;613.35;;;556.03;;
2362;SDS011;1192;51.664;7.626;2022-09-25T02:29:55;628.60;;;570.28;;
2362;SDS011;1192;51.664;7.626;2022-09-25T02:32:23;630.47;;;571.63;;
2362;SDS011;1192;51.664;7.626;2022-09-25T02:34:55;607.95;;;549.85;;
2362;SDS011;1192;51.664;7.626;2022-09-25T02:37:23;614.25;;;556.20;;
2362;SDS011;1192;51.664;7.626;2022-09-25T02:39:52;611.08;;;552.58;;
2362;SDS011;1192;51.664;7.626;2022-09-25T02:42:25;639.40;;;580.20;;
2362;SDS011;1192;51.664;7.626;2022-09-25T02:45:08;628.28;;;569.92;;
2362;SDS011;1192;51.664;7.626;2022-09-25T02:47:43;608.60;;;550.75;;
2362;SDS011;1192;51.664;7.626;2022-09-25T02:50:21;613.70;;;554.92;;
2362;SDS011;1192;51.664;7.626;2022-09-25T02:52:52;620.78;;;561.80;;
2362;SDS011;1192;51.664;7.626;2022-09-25T02:55:30;614.72;;;555.53;;
2362;SDS011;1192;51.664;7.626;2022-09-25T02:58:03;610.47;;;553.85;;
2362;SDS011;1192;51.664;7.626;2022-09-25T03:00:36;615.75;;;557.90;;
2362;SDS011;1192;51.664;7.626;2022-09-25T03:03:05;618.03;;;560.38;;
2362;SDS011;1192;51.664;7.626;2022-09-25T03:05:34;619.15;;;562.00;;
2362;SDS011;1192;51.664;7.626;2022-09-25T03:08:02;617.42;;;559.95;;
2362;SDS011;1192;51.664;7.626;2022-09-25T03:10:56;610.78;;;553.38;;
2362;SDS011;1192;51.664;7.626;2022-09-25T03:13:24;598.53;;;541.67;;
2362;SDS011;1192;51.664;7.626;2022-09-25T03:15:57;616.25;;;558.90;;
2362;SDS011;1192;51.664;7.626;2022-09-25T03:18:26;614.05;;;556.55;;
2362;SDS011;1192;51.664;7.626;2022-09-25T03:20:54;609.17;;;551.97;;
2362;SDS011;1192;51.664;7.626;2022-09-25T03:23:21;619.38;;;561.90;;
2362;SDS011;1192;51.664;7.626;2022-09-25T03:25:48;626.97;;;568.92;;
2362;SDS011;1192;51.664;7.626;2022-09-25T03:28:15;611.60;;;553.88;;
2362;SDS011;1192;51.664;7.626;2022-09-25T03:30:42;610.25;;;552.72;;
2362;SDS011;1192;51.664;7.626;2022-09-25T03:33:11;622.42;;;565.03;;
2362;SDS011;1192;51.664;7.626;2022-09-25T03:35:38;606.03;;;549.03;;
2362;SDS011;1192;51.664;7.626;2022-09-25T03:38:05;620.15;;;562.83;;
2362;SDS011;1192;51.664;7.626;2022-09-25T03:40:34;639.05;;;581.67;;
2362;SDS011;1192;51.664;7.626;2022-09-25T03:43:01;612.55;;;556.08;;
2362;SDS011;1192;51.664;7.626;2022-09-25T03:45:28;619.65;;;562.58;;
2362;SDS011;1192;51.664;7.626;2022-09-25T03:47:54;643.97;;;586.03;;
2362;SDS011;1192;51.664;7.626;2022-09-25T03:50:22;618.00;;;561.08;;
2362;SDS011;1192;51.664;7.626;2022-09-25T03:52:49;622.72;;;566.75;;
2362;SDS011;1192;51.664;7.626;2022-09-25T03:55:16;602.63;;;547.28;;
2362;SDS011;1192;51.664;7.626;2022-09-25T03:57:44;610.00;;;555.20;;
2362;SDS011;1192;51.664;7.626;2022-09-25T04:00:11;617.28;;;561.53;;
2362;SDS011;1192;51.664;7.626;2022-09-25T04:02:38;602.67;;;547.70;;
2362;SDS011;1192;51.664;7.626;2022-09-25T04:05:05;644.63;;;589.08;;
2362;SDS011;1192;51.664;7.626;2022-09-25T04:07:34;616.20;;;560.90;;
2362;SDS011;1192;51.664;7.626;2022-09-25T04:10:01;597.72;;;542.75;;
2362;SDS011;1192;51.664;7.626;2022-09-25T04:12:28;599.92;;;544.85;;
2362;SDS011;1192;51.664;7.626;2022-09-25T04:14:55;605.40;;;550.15;;
2362;SDS011;1192;51.664;7.626;2022-09-25T04:17:22;604.45;;;549.08;;
2362;SDS011;1192;51.664;7.626;2022-09-25T04:19:48;615.03;;;559.65;;
2362;SDS011;1192;51.664;7.626;2022-09-25T04:22:16;604.05;;;548.45;;
2362;SDS011;1192;51.664;7.626;2022-09-25T04:24:45;592.78;;;538.20;;
2362;SDS011;1192;51.664;7.626;2022-09-25T04:27:13;593.72;;;538.60;;
2362;SDS011;1192;51.664;7.626;2022-09-25T04:29:43;600.25;;;544.58;;
2362;SDS011;1192;51.664;7.626;2022-09-25T04:32:10;621.35;;;565.05;;
2362;SDS011;1192;51.664;7.626;2022-09-25T04:35:00;595.45;;;539.28;;
2362;SDS011;1192;51.664;7.626;2022-09-25T04:37:26;598.13;;;541.72;;
2362;SDS011;1192;51.664;7.626;2022-09-25T04:39:55;599.28;;;543.25;;
2362;SDS011;1192;51.664;7.626;2022-09-25T04:42:22;615.65;;;558.53;;
2362;SDS011;1192;51.664;7.626;2022-09-25T04:44:50;609.88;;;552.90;;
2362;SDS011;1192;51.664;7.626;2022-09-25T04:47:18;604.15;;;547.17;;
2362;SDS011;1192;51.664;7.626;2022-09-25T04:49:45;597.67;;;541.17;;
2362;SDS011;1192;51.664;7.626;2022-09-25T04:52:12;617.88;;;561.10;;
2362;SDS011;1192;51.664;7.626;2022-09-25T04:54:40;635.45;;;577.45;;
2362;SDS011;1192;51.664;7.626;2022-09-25T04:57:09;607.20;;;550.45;;
2362;SDS011;1192;51.664;7.626;2022-09-25T04:59:39;626.03;;;568.28;;
2362;SDS011;1192;51.664;7.626;2022-09-25T05:02:06;594.30;;;537.65;;
2362;SDS011;1192;51.664;7.626;2022-09-25T05:04:33;625.58;;;567.55;;
2362;SDS011;1192;51.664;7.626;2022-09-25T05:07:00;589.83;;;533.47;;
2362;SDS011;1192;51.664;7.626;2022-09-25T05:09:26;630.25;;;572.35;;
2362;SDS011;1192;51.664;7.626;2022-09-25T05:11:53;593.78;;;536.63;;
2362;SDS011;1192;51.664;7.626;2022-09-25T05:14:22;602.45;;;544.75;;
2362;SDS011;1192;51.664;7.626;2022-09-25T05:16:48;598.25;;;540.78;;
2362;SDS011;1192;51.664;7.626;2022-09-25T05:19:15;616.65;;;558.35;;
2362;SDS011;1192;51.664;7.626;2022-09-25T05:21:42;603.58;;;545.28;;
2362;SDS011;1192;51.664;7.626;2022-09-25T05:24:09;600.80;;;543.10;;
2362;SDS011;1192;51.664;7.626;2022-09-25T05:26:38;603.75;;;545.53;;
2362;SDS011;1192;51.664;7.626;2022-09-25T05:29:06;614.90;;;555.50;;
2362;SDS011;1192;51.664;7.626;2022-09-25T05:31:34;609.40;;;549.83;;
2362;SDS011;1192;51.664;7.626;2022-09-25T05:34:00;608.88;;;547.45;;
2362;SDS011;1192;51.664;7.626;2022-09-25T05:36:27;601.58;;;544.17;;
2362;SDS011;1192;51.664;7.626;2022-09-25T05:38:54;592.47;;;535.42;;
2362;SDS011;1192;51.664;7.626;2022-09-25T05:41:21;593.90;;;537.97;;
2362;SDS011;1192;51.664;7.626;2022-09-25T05:43:48;609.03;;;552.25;;
2362;SDS011;1192;51.664;7.626;2022-09-25T05:46:15;601.85;;;545.03;;
2362;SDS011;1192;51.664;7.626;2022-09-25T05:48:43;609.47;;;552.42;;
2362;SDS011;1192;51.664;7.626;2022-09-25T05:51:10;600.33;;;543.08;;
2362;SDS011;1192;51.664;7.626;2022-09-25T05:53:36;600.72;;;543.58;;
2362;SDS011;1192;51.664;7.626;2022-09-25T05:56:04;588.58;;;531.70;;
2362;SDS011;1192;51.664;7.626;2022-09-25T05:58:31;581.97;;;525.10;;
2362;SDS011;1192;51.664;7.626;2022-09-25T06:00:59;579.40;;;521.58;;
2362;SDS011;1192;51.664;7.626;2022-09-25T06:03:27;592.83;;;534.42;;
2362;SDS011;1192;51.664;7.626;2022-09-25T06:05:56;586.35;;;528.13;;
2362;SDS011;1192;51.664;7.626;2022-09-25T06:08:23;629.92;;;569.90;;
2362;SDS011;1192;51.664;7.626;2022-09-25T06:10:50;604.10;;;545.72;;
2362;SDS011;1192;51.664;7.626;2022-09-25T06:13:21;599.50;;;540.90;;
2362;SDS011;1192;51.664;7.626;2022-09-25T06:15:49;599.97;;;541.00;;
2362;SDS011;1192;51.664;7.626;2022-09-25T06:18:16;587.78;;;529.53;;
2362;SDS011;1192;51.664;7.626;2022-09-25T06:20:44;597.70;;;539.03;;
2362;SDS011;1192;51.664;7.626;2022-09-25T06:23:12;595.30;;;536.75;;
2362;SDS011;1192;51.664;7.626;2022-09-25T06:25:39;598.53;;;539.38;;
2362;SDS011;1192;51.664;7.626;2022-09-25T06:28:06;596.22;;;537.45;;
2362;SDS011;1192;51.664;7.626;2022-09-25T06:30:34;593.03;;;535.33;;
2362;SDS011;1192;51.664;7.626;2022-09-25T06:33:02;591.58;;;534.03;;
2362;SDS011;1192;51.664;7.626;2022-09-25T06:35:31;601.22;;;543.63;;
2362;SDS011;1192;51.664;7.626;2022-09-25T06:37:59;600.10;;;542.17;;
2362;SDS011;1192;51.664;7.626;2022-09-25T06:40:29;616.53;;;557.92;;
2362;SDS011;1192;51.664;7.626;2022-09-25T06:42:56;629.78;;;571.15;;
2362;SDS011;1192;51.664;7.626;2022-09-25T06:45:23;650.42;;;590.38;;
2362;SDS011;1192;51.664;7.626;2022-09-25T06:47:51;648.13;;;588.42;;
2362;SDS011;1192;51.664;7.626;2022-09-25T06:50:21;656.30;;;596.92;;
2362;SDS011;1192;51.664;7.626;2022-09-25T06:52:49;656.05;;;596.38;;
2362;SDS011;1192;51.664;7.626;2022-09-25T06:55:16;657.50;;;597.58;;
2362;SDS011;1192;51.664;7.626;2022-09-25T06:57:45;655.83;;;596.13;;
2362;SDS011;1192;51.664;7.626;2022-09-25T07:00:12;658.13;;;598.47;;
2362;SDS011;1192;51.664;7.626;2022-09-25T07:02:39;650.22;;;590.45;;
2362;SDS011;1192;51.664;7.626;2022-09-25T07:05:23;653.85;;;594.42;;
2362;SDS011;1192;51.664;7.626;2022-09-25T07:07:50;667.22;;;607.03;;
2362;SDS011;1192;51.664;7.626;2022-09-25T07:10:17;678.15;;;617.33;;
2362;SDS011;1192;51.664;7.626;2022-09-25T07:12:43;672.47;;;612.28;;
2362;SDS011;1192;51.664;7.626;2022-09-25T07:15:12;680.67;;;621.97;;
2362;SDS011;1192;51.664;7.626;2022-09-25T07:17:40;670.92;;;612.97;;
2362;SDS011;1192;51.664;7.626;2022-09-25T07:20:08;682.22;;;624.38;;
2362;SDS011;1192;51.664;7.626;2022-09-25T07:22:36;683.30;;;625.00;;
2362;SDS011;1192;51.664;7.626;2022-09-25T07:25:03;699.17;;;640.33;;
2362;SDS011;1192;51.664;7.626;2022-09-25T07:27:31;687.28;;;628.90;;
2362;SDS011;1192;51.664;7.626;2022-09-25T07:30:00;672.22;;;614.03;;
2362;SDS011;1192;51.664;7.626;2022-09-25T07:32:27;683.72;;;625.92;;
2362;SDS011;1192;51.664;7.626;2022-09-25T07:34:55;680.53;;;622.70;;
2362;SDS011;1192;51.664;7.626;2022-09-25T07:37:22;701.95;;;643.83;;
2362;SDS011;1192;51.664;7.626;2022-09-25T07:39:49;677.05;;;619.35;;
2362;SDS011;1192;51.664;7.626;2022-09-25T07:42:16;679.83;;;621.72;;
2362;SDS011;1192;51.664;7.626;2022-09-25T07:44:43;698.05;;;639.17;;
2362;SDS011;1192;51.664;7.626;2022-09-25T07:47:11;722.13;;;662.83;;
2362;SDS011;1192;51.664;7.626;2022-09-25T07:49:39;710.50;;;651.95;;
2362;SDS011;1192;51.664;7.626;2022-09-25T07:52:05;712.80;;;655.58;;
2362;SDS011;1192;51.664;7.626;2022-09-25T07:54:32;721.97;;;664.10;;
2362;SDS011;1192;51.664;7.626;2022-09-25T07:57:00;686.78;;;630.30;;
2362;SDS011;1192;51.664;7.626;2022-09-25T07:59:26;700.10;;;642.83;;
2362;SDS011;1192;51.664;7.626;2022-09-25T08:01:53;706.83;;;649.25;;
2362;SDS011;1192;51.664;7.626;2022-09-25T08:04:23;704.05;;;646.83;;
2362;SDS011;1192;51.664;7.626;2022-09-25T08:06:50;734.35;;;676.00;;
2362;SDS011;1192;51.664;7.626;2022-09-25T08:09:16;742.03;;;683.78;;
2362;SDS011;1192;51.664;7.626;2022-09-25T08:11:43;736.63;;;678.35;;
2362;SDS011;1192;51.664;7.626;2022-09-25T08:14:10;740.35;;;680.95;;
2362;SDS011;1192;51.664;7.626;2022-09-25T08:16:39;745.53;;;685.95;;
2362;SDS011;1192;51.664;7.626;2022-09-25T08:19:06;756.85;;;697.50;;
2362;SDS011;1192;51.664;7.626;2022-09-25T08:21:34;736.70;;;677.53;;
2362;SDS011;1192;51.664;7.626;2022-09-25T08:24:01;754.25;;;693.88;;
2362;SDS011;1192;51.664;7.626;2022-09-25T08:26:28;740.33;;;679.85;;
2362;SDS011;1192;51.664;7.626;2022-09-25T08:28:57;730.72;;;669.08;;
2362;SDS011;1192;51.664;7.626;2022-09-25T08:31:24;739.22;;;677.67;;
2362;SDS011;1192;51.664;7.626;2022-09-25T08:33:51;738.88;;;676.00;;
2362;SDS011;1192;51.664;7.626;2022-09-25T08:36:19;741.53;;;677.03;;
2362;SDS011;1192;51.664;7.626;2022-09-25T08:38:50;753.75;;;688.95;;
2362;SDS011;1192;51.664;7.626;2022-09-25T08:41:21;760.78;;;694.20;;
2362;SDS011;1192;51.664;7.626;2022-09-25T08:43:53;775.85;;;710.70;;
2362;SDS011;1192;51.664;7.626;2022-09-25T08:46:26;771.33;;;705.97;;
2362;SDS011;1192;51.664;7.626;2022-09-25T08:49:20;760.85;;;695.75;;
2362;SDS011;1192;51.664;7.626;2022-09-25T08:51:51;765.33;;;700.05;;
2362;SDS011;1192;51.664;7.626;2022-09-25T08:54:23;755.15;;;689.30;;
2362;SDS011;1192;51.664;7.626;2022-09-25T08:56:52;758.17;;;695.15;;
2362;SDS011;1192;51.664;7.626;2022-09-25T08:59:22;751.47;;;688.40;;
2362;SDS011;1192;51.664;7.626;2022-09-25T09:01:54;762.30;;;697.30;;
2362;SDS011;1192;51.664;7.626;2022-09-25T09:04:24;766.92;;;701.95;;
2362;SDS011;1192;51.664;7.626;2022-09-25T09:06:57;757.75;;;693.15;;
2362;SDS011;1192;51.664;7.626;2022-09-25T09:09:33;754.67;;;690.53;;
2362;SDS011;1192;51.664;7.626;2022-09-25T09:12:05;772.88;;;709.08;;
2362;SDS011;1192;51.664;7.626;2022-09-25T09:14:38;781.70;;;718.00;;
2362;SDS011;1192;51.664;7.626;2022-09-25T09:17:13;787.03;;;722.17;;
2362;SDS011;1192;51.664;7.626;2022-09-25T09:19:45;770.88;;;706.65;;
2362;SDS011;1192;51.664;7.626;2022-09-25T09:22:13;772.75;;;709.55;;
2362;SDS011;1192;51.664;7.626;2022-09-25T09:24:51;779.25;;;716.38;;
2362;SDS011;1192;51.664;7.626;2022-09-25T09:27:34;767.40;;;704.47;;
2362;SDS011;1192;51.664;7.626;2022-09-25T09:30:14;781.80;;;720.30;;
2362;SDS011;1192;51.664;7.626;2022-09-25T09:32:47;772.08;;;711.22;;
2362;SDS011;1192;51.664;7.626;2022-09-25T09:35:24;767.60;;;706.90;;
2362;SDS011;1192;51.664;7.626;2022-09-25T09:37:59;777.33;;;716.35;;
2362;SDS011;1192;51.664;7.626;2022-09-25T09:40:40;791.50;;;730.42;;
2362;SDS011;1192;51.664;7.626;2022-09-25T09:43:30;757.05;;;696.78;;
2362;SDS011;1192;51.664;7.626;2022-09-25T09:46:09;777.78;;;716.42;;
2362;SDS011;1192;51.664;7.626;2022-09-25T09:48:43;752.42;;;691.53;;
2362;SDS011;1192;51.664;7.626;2022-09-25T09:51:18;736.78;;;676.78;;
2362;SDS011;1192;51.664;7.626;2022-09-25T09:53:49;751.67;;;690.80;;
2362;SDS011;1192;51.664;7.626;2022-09-25T09:56:21;754.38;;;692.33;;
2362;SDS011;1192;51.664;7.626;2022-09-25T09:58:51;756.35;;;694.20;;
2362;SDS011;1192;51.664;7.626;2022-09-25T10:01:22;775.03;;;711.92;;
2362;SDS011;1192;51.664;7.626;2022-09-25T10:03:52;755.50;;;693.00;;
2362;SDS011;1192;51.664;7.626;2022-09-25T10:06:27;722.45;;;660.80;;
2362;SDS011;1192;51.664;7.626;2022-09-25T10:08:56;765.63;;;702.58;;
2362;SDS011;1192;51.664;7.626;2022-09-25T10:11:24;752.25;;;690.17;;
2362;SDS011;1192;51.664;7.626;2022-09-25T10:13:51;741.83;;;679.42;;
2362;SDS011;1192;51.664;7.626;2022-09-25T10:16:20;762.22;;;698.80;;
2362;SDS011;1192;51.664;7.626;2022-09-25T10:18:50;752.38;;;689.22;;
2362;SDS011;1192;51.664;7.626;2022-09-25T10:21:22;767.80;;;703.42;;
2362;SDS011;1192;51.664;7.626;2022-09-25T10:23:52;747.75;;;685.00;;
2362;SDS011;1192;51.664;7.626;2022-09-25T10:26:24;762.22;;;699.13;;
2362;SDS011;1192;51.664;7.626;2022-09-25T10:28:53;755.63;;;692.83;;
2362;SDS011;1192;51.664;7.626;2022-09-25T10:31:22;769.47;;;705.50;;
2362;SDS011;1192;51.664;7.626;2022-09-25T10:33:56;762.10;;;701.50;;
2362;SDS011;1192;51.664;7.626;2022-09-25T10:36:36;758.67;;;698.42;;
2362;SDS011;1192;51.664;7.626;2022-09-25T10:39:18;755.15;;;694.75;;
2362;SDS011;1192;51.664;7.626;2022-09-25T10:41:55;730.13;;;670.25;;
2362;SDS011;1192;51.664;7.626;2022-09-25T10:44:28;741.53;;;681.90;;
2362;SDS011;1192;51.664;7.626;2022-09-25T10:47:00;748.22;;;690.17;;
2362;SDS011;1192;51.664;7.626;2022-09-25T10:50:13;722.53;;;663.25;;
2362;SDS011;1192;51.664;7.626;2022-09-25T10:52:43;727.70;;;668.20;;
2362;SDS011;1192;51.664;7.626;2022-09-25T10:55:19;733.22;;;673.70;;
2362;SDS011;1192;51.664;7.626;2022-09-25T10:57:52;735.67;;;675.67;;
2362;SDS011;1192;51.664;7.626;2022-09-25T11:00:28;753.97;;;693.05;;
2362;SDS011;1192;51.664;7.626;2022-09-25T11:02:57;739.60;;;678.53;;
2362;SDS011;1192;51.664;7.626;2022-09-25T11:05:28;733.55;;;673.17;;
2362;SDS011;1192;51.664;7.626;2022-09-25T11:07:57;745.00;;;684.17;;
2362;SDS011;1192;51.664;7.626;2022-09-25T11:10:27;748.40;;;687.92;;
2362;SDS011;1192;51.664;7.626;2022-09-25T11:12:57;737.65;;;677.17;;
2362;SDS011;1192;51.664;7.626;2022-09-25T11:15:24;761.42;;;700.13;;
2362;SDS011;1192;51.664;7.626;2022-09-25T11:17:53;744.92;;;683.53;;
2362;SDS011;1192;51.664;7.626;2022-09-25T11:20:22;741.50;;;680.00;;
2362;SDS011;1192;51.664;7.626;2022-09-25T11:22:56;728.70;;;668.72;;
2362;SDS011;1192;51.664;7.626;2022-09-25T11:25:33;735.15;;;674.72;;
2362;SDS011;1192;51.664;7.626;2022-09-25T11:28:10;750.13;;;689.38;;
2362;SDS011;1192;51.664;7.626;2022-09-25T11:30:43;736.92;;;676.40;;
2362;SDS011;1192;51.664;7.626;2022-09-25T11:33:16;731.90;;;672.35;;
2362;SDS011;1192;51.664;7.626;2022-09-25T11:35:50;737.15;;;676.97;;
2362;SDS011;1192;51.664;7.626;2022-09-25T11:38:22;738.60;;;678.72;;
2362;SDS011;1192;51.664;7.626;2022-09-25T11:41:09;738.28;;;678.78;;
2362;SDS011;1192;51.664;7.626;2022-09-25T11:43:50;727.50;;;668.40;;
2362;SDS011;1192;51.664;7.626;2022-09-25T11:46:25;721.20;;;662.50;;
2362;SDS011;1192;51.664;7.626;2022-09-25T11:49:01;724.15;;;664.55;;
2362;SDS011;1192;51.664;7.626;2022-09-25T11:54:32;733.90;;;674.03;;
2362;SDS011;1192;51.664;7.626;2022-09-25T11:57:08;723.80;;;663.63;;
2362;SDS011;1192;51.664;7.626;2022-09-25T11:59:58;713.70;;;654.28;;
2362;SDS011;1192;51.664;7.626;2022-09-25T12:02:31;727.53;;;666.92;;
2362;SDS011;1192;51.664;7.626;2022-09-25T12:05:17;703.78;;;643.97;;
2362;SDS011;1192;51.664;7.626;2022-09-25T12:10:51;718.45;;;657.47;;
2362;SDS011;1192;51.664;7.626;2022-09-25T12:13:27;713.08;;;651.45;;
2362;SDS011;1192;51.664;7.626;2022-09-25T12:16:09;730.53;;;668.30;;
2362;SDS011;1192;51.664;7.626;2022-09-25T12:18:48;731.47;;;669.08;;
2362;SDS011;1192;51.664;7.626;2022-09-25T12:21:25;737.97;;;675.58;;
2362;SDS011;1192;51.664;7.626;2022-09-25T12:23:59;724.33;;;661.85;;
2362;SDS011;1192;51.664;7.626;2022-09-25T12:26:32;713.85;;;651.53;;
2362;SDS011;1192;51.664;7.626;2022-09-25T12:29:10;735.85;;;672.35;;
2362;SDS011;1192;51.664;7.626;2022-09-25T12:31:47;738.38;;;673.88;;
2362;SDS011;1192;51.664;7.626;2022-09-25T12:34:24;738.05;;;672.47;;
2362;SDS011;1192;51.664;7.626;2022-09-25T12:36:59;734.55;;;669.72;;
2362;SDS011;1192;51.664;7.626;2022-09-25T12:39:34;741.08;;;676.33;;
2362;SDS011;1192;51.664;7.626;2022-09-25T12:42:06;745.25;;;679.30;;
2362;SDS011;1192;51.664;7.626;2022-09-25T12:44:42;735.53;;;669.00;;
2362;SDS011;1192;51.664;7.626;2022-09-25T12:47:18;722.78;;;656.63;;
2362;SDS011;1192;51.664;7.626;2022-09-25T12:49:49;735.88;;;669.50;;
2362;SDS011;1192;51.664;7.626;2022-09-25T12:52:23;724.45;;;658.30;;
2362;SDS011;1192;51.664;7.626;2022-09-25T12:54:55;729.70;;;661.88;;
2362;SDS011;1192;51.664;7.626;2022-09-25T12:57:28;746.63;;;678.00;;
2362;SDS011;1192;51.664;7.626;2022-09-25T13:00:03;733.92;;;662.67;;
2362;SDS011;1192;51.664;7.626;2022-09-25T13:02:35;724.28;;;660.40;;
2362;SDS011;1192;51.664;7.626;2022-09-25T13:05:11;719.13;;;656.83;;
2362;SDS011;1192;51.664;7.626;2022-09-25T13:07:44;710.80;;;648.50;;
2362;SDS011;1192;51.664;7.626;2022-09-25T13:10:18;725.53;;;662.72;;
2362;SDS011;1192;51.664;7.626;2022-09-25T13:12:50;716.33;;;652.65;;
2362;SDS011;1192;51.664;7.626;2022-09-25T13:15:21;727.20;;;662.90;;
2362;SDS011;1192;51.664;7.626;2022-09-25T13:17:51;739.10;;;674.22;;
2362;SDS011;1192;51.664;7.626;2022-09-25T13:23:24;738.08;;;662.17;;
2362;SDS011;1192;51.664;7.626;2022-09-25T13:26:08;738.47;;;667.25;;
2362;SDS011;1192;51.664;7.626;2022-09-25T13:28:37;734.58;;;664.33;;
2362;SDS011;1192;51.664;7.626;2022-09-25T13:31:07;735.40;;;666.85;;
2362;SDS011;1192;51.664;7.626;2022-09-25T13:33:41;745.28;;;678.67;;
2362;SDS011;1192;51.664;7.626;2022-09-25T13:36:18;729.67;;;658.45;;
2362;SDS011;1192;51.664;7.626;2022-09-25T13:38:57;743.70;;;670.95;;
2362;SDS011;1192;51.664;7.626;2022-09-25T13:41:50;732.80;;;663.78;;
2362;SDS011;1192;51.664;7.626;2022-09-25T13:50:17;730.05;;;660.08;;
2362;SDS011;1192;51.664;7.626;2022-09-25T13:52:50;706.55;;;639.13;;
2362;SDS011;1192;51.664;7.626;2022-09-25T13:55:40;712.28;;;646.30;;
2362;SDS011;1192;51.664;7.626;2022-09-25T13:58:15;720.28;;;655.15;;
2362;SDS011;1192;51.664;7.626;2022-09-25T14:00:53;713.90;;;648.97;;
2362;SDS011;1192;51.664;7.626;2022-09-25T14:03:28;707.88;;;643.22;;
2362;SDS011;1192;51.664;7.626;2022-09-25T14:06:00;721.58;;;657.17;;
2362;SDS011;1192;51.664;7.626;2022-09-25T14:08:29;717.85;;;654.33;;
2362;SDS011;1192;51.664;7.626;2022-09-25T14:10:59;712.05;;;648.65;;
2362;SDS011;1192;51.664;7.626;2022-09-25T14:13:29;718.17;;;655.28;;
2362;SDS011;1192;51.664;7.626;2022-09-25T14:15:59;720.10;;;656.72;;
2362;SDS011;1192;51.664;7.626;2022-09-25T14:18:30;714.13;;;651.20;;
2362;SDS011;1192;51.664;7.626;2022-09-25T14:21:04;722.95;;;659.65;;
2362;SDS011;1192;51.664;7.626;2022-09-25T14:23:31;718.00;;;654.63;;
2362;SDS011;1192;51.664;7.626;2022-09-25T14:25:58;705.10;;;642.42;;
2362;SDS011;1192;51.664;7.626;2022-09-25T14:28:29;719.88;;;656.42;;
2362;SDS011;1192;51.664;7.626;2022-09-25T14:31:05;717.22;;;654.35;;
2362;SDS011;1192;51.664;7.626;2022-09-25T14:33:46;716.75;;;653.63;;
2362;SDS011;1192;51.664;7.626;2022-09-25T14:36:42;713.65;;;650.83;;
2362;SDS011;1192;51.664;7.626;2022-09-25T14:39:19;728.55;;;665.13;;
2362;SDS011;1192;51.664;7.626;2022-09-25T14:47:56;690.83;;;629.88;;
2362;SDS011;1192;51.664;7.626;2022-09-25T14:50:26;699.67;;;638.88;;
2362;SDS011;1192;51.664;7.626;2022-09-25T14:52:58;684.42;;;623.97;;
2362;SDS011;1192;51.664;7.626;2022-09-25T14:55:31;733.15;;;670.55;;
2362;SDS011;1192;51.664;7.626;2022-09-25T14:58:03;706.78;;;645.67;;
2362;SDS011;1192;51.664;7.626;2022-09-25T15:00:34;711.83;;;650.85;;
2362;SDS011;1192;51.664;7.626;2022-09-25T15:03:08;702.90;;;641.90;;
2362;SDS011;1192;51.664;7.626;2022-09-25T15:05:38;710.97;;;649.67;;